Oregon State Flying Club

The Oregon State Flying Club is a non-profit organization committed to providing safe and inexpensive flying to the Oregon State University and Linn-Benton Community College communities. The Club currently owns three aircraft based at the Corvallis Airport for training, travel, and recreational purposes. Founded in 1952 and incorporated in 1956 the OSFC is one of the oldest continuously active flying clubs in the United States.

News & Announcements

Monthly Board Meeting

Next Meeting: Wednesday, August 13 @ 6pm, location TBD

Current METAR KCVO

Raw METAR:  KCVO 310915Z AUTO 30004KT 10SM 18/12 A3006 RMK AO1

This is a report for Corvallis Municipal Automatic Weather Observing / Reporting System, United States. The report was made 10 minutes ago, at 09:15 UTC. The wind was blowing at a speed of 4.6 miles per hour (2.1 meters per second) from west/northwest (300°). The temperature was 64 °F (18 °C), with a dew-point at 54 °F (12 °C). The atmospheric pressure was 30.06 inHg (1018 hPa). The relative humidity was 68.0%. The overall visibility was 10.0 miles (16.1 kilometers).